»·PEaware :: AAL211 KPSP-KSFO

AAL211 :: KPSP-KSFO

FLIGHT INFORMATION

Flight Status: Arrived
Operator:
American Airlines
More flights by this operator :: More flights under this callsign
Pilot: Robert McDonald (1649)
Aircraft: BOEING 737-800
(B738)
More flights by this aircraft type
Origin: KPSP Palm Springs Intl
United States
Destination: KSFO San Francisco Intl
United States
More flights between these airports :: More routes between these airports
Route: +CATH1 PSP V386 PMD AVE MAKRS SERFR SERFR SERFR2
File this flight plan on PilotEdge
Remarks:
Altitude:
(Current/Filed)
38,000ft
Speed:
(Current/Filed)
450kts
Departed: 05-Jun-17 12:33 PM
Arrived: 05-Jun-17 01:41 PM
Distance/Time
Traveled:
365nm/1:07
Distance/Time
To Go:
Arrived

Flight Plot

Page will automatically refresh every two minutes.

Flight plan parsing failed; only flown route is shown


Map Options




Map Legend


Flown Route
Filed Route
Departure Airport
Arrival Airport
Navaid (VOR, NDB)
Fix

Horizontal Profiles

Position Reports

Time Latitude Longitude Heading Altitude Ground
Speed
05-Jun-17 12:15 33.823828 -116.506542 205 486ft 0kts
05-Jun-17 12:16 33.823828 -116.506542 205 486ft 0kts
05-Jun-17 12:17 33.823828 -116.506542 205 486ft 0kts
05-Jun-17 12:18 33.823828 -116.506542 205 486ft 0kts
05-Jun-17 12:19 33.823827 -116.506542 205 486ft 0kts
05-Jun-17 12:20 33.824269 -116.506445 184 486ft 0kts
05-Jun-17 12:21 33.824268 -116.506445 184 486ft 0kts
05-Jun-17 12:22 33.824268 -116.506445 184 486ft 0kts
05-Jun-17 12:23 33.824268 -116.506446 184 486ft 0kts
05-Jun-17 12:24 33.824267 -116.506446 184 486ft 0kts
05-Jun-17 12:25 33.824267 -116.506446 184 486ft 0kts
05-Jun-17 12:26 33.824266 -116.506446 184 486ft 0kts
05-Jun-17 12:27 33.824266 -116.506446 184 486ft 0kts
05-Jun-17 12:28 33.824265 -116.506446 184 486ft 0kts
05-Jun-17 12:29 33.824264 -116.506446 184 486ft 0kts
05-Jun-17 12:30 33.824210 -116.506444 177 486ft 0kts
05-Jun-17 12:31 33.824178 -116.506436 168 486ft 4kts
05-Jun-17 12:32 33.823919 -116.506163 133 486ft 7kts
05-Jun-17 12:33 33.821795 -116.502585 142 486ft 16kts
05-Jun-17 12:34 33.818566 -116.499680 126 486ft 14kts
05-Jun-17 12:35 33.826614 -116.504864 323 487ft 152kts
05-Jun-17 12:36 33.871046 -116.545596 321 3791ft 221kts
05-Jun-17 12:37 33.926542 -116.560151 46 6787ft 238kts
05-Jun-17 12:38 33.915293 -116.491678 130 10100ft 234kts
05-Jun-17 12:39 33.888620 -116.424181 71 12748ft 242kts
05-Jun-17 12:40 33.946902 -116.405923 307 13228ft 257kts
05-Jun-17 12:41 33.977163 -116.481185 291 16411ft 251kts
05-Jun-17 12:42 34.008540 -116.557445 291 19284ft 257kts
05-Jun-17 12:43 34.041002 -116.635358 292 21796ft 263kts
05-Jun-17 12:44 34.074450 -116.715137 292 23149ft 270kts
05-Jun-17 12:45 34.111036 -116.796821 297 24716ft 299kts
05-Jun-17 12:46 34.158863 -116.892335 297 25205ft 366kts
05-Jun-17 12:47 34.215634 -117.007382 297 25469ft 431kts
05-Jun-17 12:48 34.278085 -117.133757 297 27287ft 442kts
05-Jun-17 12:49 34.340845 -117.261283 297 29478ft 438kts
05-Jun-17 12:50 34.402494 -117.386820 296 31617ft 431kts
05-Jun-17 12:51 34.463299 -117.510863 296 33484ft 425kts
05-Jun-17 12:52 34.523413 -117.633759 295 35115ft 420kts
05-Jun-17 12:53 34.582604 -117.754992 295 36475ft 415kts
05-Jun-17 12:54 34.641068 -117.875024 295 37611ft 412kts
05-Jun-17 12:55 34.699269 -117.994704 294 37980ft 412kts
05-Jun-17 12:56 34.757637 -118.114974 295 37983ft 412kts
05-Jun-17 12:57 34.816086 -118.234882 295 37987ft 412kts
05-Jun-17 12:58 34.873968 -118.355407 294 38018ft 413kts
05-Jun-17 12:59 34.931907 -118.475468 295 38066ft 413kts
05-Jun-17 13:00 34.990235 -118.596652 295 38087ft 415kts
05-Jun-17 13:01 35.048764 -118.718465 295 38085ft 415kts
05-Jun-17 13:02 35.107120 -118.840210 295 38072ft 416kts
05-Jun-17 13:03 35.165540 -118.962279 295 38016ft 417kts
05-Jun-17 13:04 35.224084 -119.084890 296 37983ft 417kts
05-Jun-17 13:05 35.282501 -119.207501 296 37971ft 418kts
05-Jun-17 13:06 35.341107 -119.330671 296 37974ft 420kts
05-Jun-17 13:07 35.399780 -119.454381 296 37967ft 421kts
05-Jun-17 13:08 35.458800 -119.578968 296 37947ft 422kts
05-Jun-17 13:09 35.517490 -119.703199 296 37948ft 422kts
05-Jun-17 13:10 35.576479 -119.828296 296 37948ft 424kts
05-Jun-17 13:11 35.635000 -119.954113 291 37949ft 423kts
05-Jun-17 13:12 35.658767 -120.093817 274 37959ft 418kts
05-Jun-17 13:13 35.672092 -120.235273 274 37961ft 416kts
05-Jun-17 13:14 35.694371 -120.374698 289 37961ft 422kts
05-Jun-17 13:15 35.744178 -120.505853 292 37959ft 422kts
05-Jun-17 13:16 35.794127 -120.636420 291 37958ft 418kts
05-Jun-17 13:17 35.843311 -120.766487 291 37960ft 420kts
05-Jun-17 13:18 35.892616 -120.896847 291 37961ft 420kts
05-Jun-17 13:19 35.941790 -121.027354 291 36427ft 419kts
05-Jun-17 13:20 35.991133 -121.158670 291 34163ft 424kts
05-Jun-17 13:21 36.040823 -121.291233 291 31887ft 427kts
05-Jun-17 13:22 36.117973 -121.403518 321 29479ft 442kts
05-Jun-17 13:23 36.221459 -121.484823 324 27099ft 435kts
05-Jun-17 13:24 36.322286 -121.563602 324 24777ft 423kts
05-Jun-17 13:25 36.420208 -121.640380 324 22532ft 410kts
05-Jun-17 13:26 36.514864 -121.714547 324 20488ft 392kts
05-Jun-17 13:27 36.604935 -121.786052 324 18549ft 375kts
05-Jun-17 13:28 36.691120 -121.854336 325 16678ft 360kts
05-Jun-17 13:29 36.779663 -121.905963 346 14863ft 352kts
05-Jun-17 13:30 36.873943 -121.931194 346 13089ft 342kts
05-Jun-17 13:31 36.965488 -121.957351 343 11363ft 332kts
05-Jun-17 13:32 37.050508 -121.991448 341 10366ft 305kts
05-Jun-17 13:33 37.127255 -122.021799 342 9447ft 280kts
05-Jun-17 13:34 37.200500 -122.050450 342 8212ft 271kts
05-Jun-17 13:35 37.271438 -122.078246 342 7034ft 264kts
05-Jun-17 13:36 37.340556 -122.105238 342 5879ft 257kts
05-Jun-17 13:37 37.408342 -122.131894 342 4925ft 253kts
05-Jun-17 13:38 37.473335 -122.160303 336 3875ft 238kts
05-Jun-17 13:39 37.533357 -122.189234 346 2683ft 261kts
05-Jun-17 13:40 37.573478 -122.262477 289 2056ft 306kts
05-Jun-17 13:41 37.600451 -122.332324 298 758ft 173kts
05-Jun-17 13:42 37.616177 -122.369174 297 21ft 54kts
05-Jun-17 13:43 37.618836 -122.379739 238 21ft 15kts
05-Jun-17 13:44 37.618126 -122.380781 270 21ft 0kts
05-Jun-17 13:45 37.618124 -122.380562 270 21ft 0kts

Navigation Log

Ident Type
Flight plan parsing failed, navigation log unavailable